This is the latest recevied weather packets stored in our database for station/object KN6KS. If no packets are shown the sender has not sent any weather packets the latest 10 day(s).
| Time | Temp. | Humidity | Pressure | Rain* | Wind** | Luminosity | Snow |
|---|---|---|---|---|---|---|---|
| 1777485737 | 20.56° C | 35% | 1016.8 hPa | 0 mm | - | 764 W/m² | - |
| 1777485432 | 20° C | 35% | 1016.7 hPa | 0 mm | - | 774 W/m² | - |
| 1777485128 | 21.11° C | 35% | 1016.7 hPa | 0 mm | - | 742 W/m² | - |
| 1777484825 | 20° C | 35% | 1016.9 hPa | 0 mm | - | 750 W/m² | - |
| 1777484522 | 20.56° C | 35% | 1017 hPa | 0 mm | - | 766 W/m² | - |
| 1777484219 | 20.56° C | 35% | 1017.2 hPa | 0 mm | - | 785 W/m² | - |
| 1777483915 | 20.56° C | 34% | 1017 hPa | 0 mm | - | 769 W/m² | - |
| 1777483611 | 18.89° C | 37% | 1016.9 hPa | 0 mm | - | 766 W/m² | - |
| 1777483306 | 19.44° C | 37% | 1017.1 hPa | 0 mm | - | 775 W/m² | - |
| 1777483003 | 20° C | 38% | 1017.2 hPa | 0 mm | - | 774 W/m² | - |
| 1777482699 | 20.56° C | 35% | 1017.2 hPa | 0 mm | - | 748 W/m² | - |
| 1777482396 | 20° C | 36% | 1017.1 hPa | 0 mm | - | 715 W/m² | - |
| 1777482093 | 18.89° C | 39% | 1017.1 hPa | 0 mm | - | 687 W/m² | - |
| 1777481791 | 17.78° C | 40% | 1017.5 hPa | 0 mm | - | 698 W/m² | - |
| 1777481488 | 18.33° C | 40% | 1017.2 hPa | 0 mm | - | 682 W/m² | - |
| 1777481184 | 18.89° C | 38% | 1017.3 hPa | 0 mm | - | 662 W/m² | - |
| 1777480881 | 18.89° C | 37% | 1017.3 hPa | 0 mm | - | 660 W/m² | - |
| 1777480577 | 17.78° C | 40% | 1017.5 hPa | 0 mm | - | 643 W/m² | - |
| 1777480275 | 17.78° C | 41% | 1017.4 hPa | 0 mm | - | 626 W/m² | - |
| 1777479970 | 17.22° C | 42% | 1017.1 hPa | 0 mm | - | 592 W/m² | - |
| 1777479668 | 17.78° C | 40% | 1017.2 hPa | 0 mm | - | 574 W/m² | - |
| 1777479366 | 17.78° C | 38% | 1017.4 hPa | 0 mm | - | 561 W/m² | - |
| 1777479062 | 17.78° C | 38% | 1017.2 hPa | 0 mm | - | 534 W/m² | - |
| 1777478758 | 18.33° C | 38% | 1017 hPa | 0 mm | - | 502 W/m² | - |
| 1777478454 | 16.67° C | 39% | 1017.2 hPa | 0 mm | - | 492 W/m² | - |
* Rain latest hour (hover to see other rain measurements)
** Current wind speed in m/s (hover to see current wind gust speed)